ZKJEE NZWN-NZWS
Flight info
| Callsign | ZKJEE |
|---|---|
| Flight time | 0h 57m |
| Altitude | 10000 |
| Route | NULKO Q235 BOLOX H463 NS H267 AKSEM |
| Aircraft | DHC6/L-SDFGR/C |
Departure
| Time | 2026-05-05 03:32 |
|---|---|
| Airport | Wellington International Airport (NZWN) |
Arrival
| Time | 2026-05-05 04:30 |
|---|---|
| Airport | Westport Airport (NZWS) |
| Time | Latitude | Longitude | Altitude | Speed | Heading |
|---|---|---|---|---|---|
| 2026-05-05 03:30 | -41.33562 | 174.80630 | 46 ft | 0 kts | 3° |
| 2026-05-05 03:31 | -41.33562 | 174.80631 | 46 ft | 0 kts | 3° |
| 2026-05-05 03:32 | -41.33472 | 174.80636 | 46 ft | 48 kts | 2° |
| 2026-05-05 03:32 | -41.32915 | 174.80609 | 47 ft | 105 kts | 351° |
| 2026-05-05 03:32 | -41.32282 | 174.80215 | 669 ft | 71 kts | 321° |
| 2026-05-05 03:32 | -41.31887 | 174.80058 | 1167 ft | 82 kts | 8° |
| 2026-05-05 03:33 | -41.31345 | 174.80339 | 1656 ft | 81 kts | 17° |
| 2026-05-05 03:33 | -41.30785 | 174.80586 | 2054 ft | 90 kts | 18° |
| 2026-05-05 03:33 | -41.30146 | 174.80788 | 2419 ft | 99 kts | 4° |
| 2026-05-05 03:33 | -41.29426 | 174.80874 | 2787 ft | 106 kts | 1° |
| 2026-05-05 03:34 | -41.28666 | 174.80935 | 3130 ft | 116 kts | 1° |
| 2026-05-05 03:34 | -41.27855 | 174.80925 | 3485 ft | 119 kts | 340° |
| 2026-05-05 03:34 | -41.27183 | 174.80266 | 3863 ft | 122 kts | 317° |
| 2026-05-05 03:34 | -41.26572 | 174.79448 | 4222 ft | 126 kts | 315° |
| 2026-05-05 03:35 | -41.25960 | 174.78614 | 4571 ft | 130 kts | 316° |
| 2026-05-05 03:35 | -41.25307 | 174.77741 | 4929 ft | 133 kts | 316° |
| 2026-05-05 03:35 | -41.24649 | 174.76860 | 5281 ft | 136 kts | 316° |
| 2026-05-05 03:35 | -41.23981 | 174.75968 | 5632 ft | 138 kts | 316° |
| 2026-05-05 03:36 | -41.23304 | 174.75063 | 5984 ft | 139 kts | 316° |
| 2026-05-05 03:36 | -41.22604 | 174.74151 | 6340 ft | 140 kts | 317° |
| 2026-05-05 03:36 | -41.21914 | 174.73254 | 6688 ft | 141 kts | 317° |
| 2026-05-05 03:36 | -41.21213 | 174.72331 | 7041 ft | 141 kts | 317° |
| 2026-05-05 03:37 | -41.20520 | 174.71427 | 7388 ft | 141 kts | 317° |
| 2026-05-05 03:37 | -41.19804 | 174.70490 | 7746 ft | 142 kts | 317° |
| 2026-05-05 03:37 | -41.19117 | 174.69588 | 8090 ft | 142 kts | 317° |
| 2026-05-05 03:37 | -41.18406 | 174.68652 | 8446 ft | 142 kts | 317° |
| 2026-05-05 03:38 | -41.17715 | 174.67743 | 8791 ft | 142 kts | 317° |
| 2026-05-05 03:38 | -41.17013 | 174.66824 | 9140 ft | 142 kts | 318° |
| 2026-05-05 03:38 | -41.16299 | 174.65898 | 9494 ft | 141 kts | 317° |
| 2026-05-05 03:38 | -41.15599 | 174.64986 | 9820 ft | 143 kts | 318° |
| 2026-05-05 03:39 | -41.14874 | 174.64038 | 9959 ft | 155 kts | 317° |
| 2026-05-05 03:39 | -41.14075 | 174.62969 | 9999 ft | 168 kts | 313° |
| 2026-05-05 03:39 | -41.13645 | 174.61493 | 10010 ft | 181 kts | 279° |
| 2026-05-05 03:39 | -41.13657 | 174.59785 | 10006 ft | 189 kts | 269° |
| 2026-05-05 03:40 | -41.13775 | 174.58025 | 9998 ft | 194 kts | 268° |
| 2026-05-05 03:40 | -41.13902 | 174.56249 | 9993 ft | 192 kts | 268° |
| 2026-05-05 03:40 | -41.14000 | 174.54504 | 9992 ft | 190 kts | 269° |
| 2026-05-05 03:40 | -41.14071 | 174.52792 | 9991 ft | 188 kts | 270° |
| 2026-05-05 03:41 | -41.14123 | 174.51032 | 9991 ft | 187 kts | 271° |
| 2026-05-05 03:41 | -41.14171 | 174.49310 | 9992 ft | 187 kts | 271° |
| 2026-05-05 03:41 | -41.14228 | 174.47600 | 9991 ft | 187 kts | 271° |
| 2026-05-05 03:41 | -41.14279 | 174.45898 | 9993 ft | 186 kts | 271° |
| 2026-05-05 03:42 | -41.14327 | 174.44153 | 9999 ft | 186 kts | 271° |
| 2026-05-05 03:42 | -41.14375 | 174.42429 | 10000 ft | 186 kts | 271° |
| 2026-05-05 03:42 | -41.14421 | 174.40731 | 10000 ft | 186 kts | 271° |
| 2026-05-05 03:42 | -41.14468 | 174.39021 | 10000 ft | 186 kts | 271° |
| 2026-05-05 03:43 | -41.14515 | 174.37286 | 9999 ft | 186 kts | 271° |
| 2026-05-05 03:43 | -41.14564 | 174.35573 | 9985 ft | 187 kts | 271° |
| 2026-05-05 03:43 | -41.14615 | 174.33855 | 9980 ft | 187 kts | 271° |
| 2026-05-05 03:43 | -41.14666 | 174.32135 | 9977 ft | 186 kts | 271° |
| 2026-05-05 03:44 | -41.14719 | 174.30414 | 9976 ft | 186 kts | 271° |
| 2026-05-05 03:44 | -41.14771 | 174.28693 | 9975 ft | 186 kts | 271° |
| 2026-05-05 03:44 | -41.14824 | 174.26975 | 9993 ft | 185 kts | 271° |
| 2026-05-05 03:44 | -41.14876 | 174.25276 | 9998 ft | 185 kts | 271° |
| 2026-05-05 03:45 | -41.14924 | 174.23574 | 9998 ft | 185 kts | 272° |
| 2026-05-05 03:45 | -41.14969 | 174.21875 | 9998 ft | 186 kts | 271° |
| 2026-05-05 03:45 | -41.15017 | 174.20150 | 9998 ft | 186 kts | 272° |
| 2026-05-05 03:45 | -41.15060 | 174.18444 | 9998 ft | 186 kts | 271° |
| 2026-05-05 03:46 | -41.15110 | 174.16730 | 9998 ft | 186 kts | 271° |
| 2026-05-05 03:46 | -41.15152 | 174.15021 | 9998 ft | 186 kts | 271° |
| 2026-05-05 03:46 | -41.15202 | 174.13303 | 9997 ft | 186 kts | 271° |
| 2026-05-05 03:46 | -41.15241 | 174.11601 | 9992 ft | 186 kts | 272° |
| 2026-05-05 03:47 | -41.15291 | 174.09899 | 9990 ft | 186 kts | 271° |
| 2026-05-05 03:47 | -41.15335 | 174.08153 | 9990 ft | 186 kts | 272° |
| 2026-05-05 03:47 | -41.15329 | 174.06470 | 9989 ft | 184 kts | 278° |
| 2026-05-05 03:47 | -41.15160 | 174.04780 | 9989 ft | 183 kts | 282° |
| 2026-05-05 03:48 | -41.14953 | 174.03129 | 9989 ft | 183 kts | 283° |
| 2026-05-05 03:48 | -41.14738 | 174.01453 | 9988 ft | 183 kts | 283° |
| 2026-05-05 03:48 | -41.14523 | 173.99775 | 9989 ft | 183 kts | 283° |
| 2026-05-05 03:48 | -41.14325 | 173.98110 | 9998 ft | 183 kts | 282° |
| 2026-05-05 03:49 | -41.14130 | 173.96429 | 10000 ft | 183 kts | 282° |
| 2026-05-05 03:49 | -41.13940 | 173.94779 | 10000 ft | 183 kts | 282° |
| 2026-05-05 03:49 | -41.13758 | 173.93109 | 10000 ft | 183 kts | 282° |
| 2026-05-05 03:49 | -41.13568 | 173.91437 | 10000 ft | 183 kts | 282° |
| 2026-05-05 03:50 | -41.13395 | 173.89768 | 10001 ft | 184 kts | 278° |
| 2026-05-05 03:50 | -41.13585 | 173.88049 | 10015 ft | 188 kts | 259° |
| 2026-05-05 03:50 | -41.13980 | 173.86396 | 10013 ft | 189 kts | 255° |
| 2026-05-05 03:50 | -41.14412 | 173.84768 | 10012 ft | 190 kts | 254° |
| 2026-05-05 03:51 | -41.14857 | 173.83100 | 10012 ft | 190 kts | 255° |
| 2026-05-05 03:51 | -41.15284 | 173.81448 | 10012 ft | 190 kts | 255° |
| 2026-05-05 03:51 | -41.15706 | 173.79803 | 10012 ft | 190 kts | 255° |
| 2026-05-05 03:51 | -41.16128 | 173.78157 | 10011 ft | 190 kts | 255° |
| 2026-05-05 03:52 | -41.16558 | 173.76479 | 10009 ft | 190 kts | 255° |
| 2026-05-05 03:52 | -41.16984 | 173.74814 | 10008 ft | 190 kts | 255° |
| 2026-05-05 03:52 | -41.17403 | 173.73175 | 10008 ft | 190 kts | 255° |
| 2026-05-05 03:52 | -41.17828 | 173.71513 | 10008 ft | 190 kts | 255° |
| 2026-05-05 03:53 | -41.18255 | 173.69847 | 10008 ft | 190 kts | 255° |
| 2026-05-05 03:53 | -41.18674 | 173.68206 | 10008 ft | 190 kts | 255° |
| 2026-05-05 03:53 | -41.19102 | 173.66534 | 10011 ft | 189 kts | 255° |
| 2026-05-05 03:53 | -41.19529 | 173.64879 | 10026 ft | 189 kts | 255° |
| 2026-05-05 03:54 | -41.19952 | 173.63246 | 10031 ft | 189 kts | 255° |
| 2026-05-05 03:54 | -41.20382 | 173.61584 | 10033 ft | 190 kts | 255° |
| 2026-05-05 03:54 | -41.20814 | 173.59921 | 10035 ft | 190 kts | 255° |
| 2026-05-05 03:54 | -41.21245 | 173.58261 | 10037 ft | 190 kts | 255° |
| 2026-05-05 03:55 | -41.21663 | 173.56605 | 10038 ft | 190 kts | 256° |
| 2026-05-05 03:55 | -41.22075 | 173.54934 | 10038 ft | 190 kts | 256° |
| 2026-05-05 03:55 | -41.22492 | 173.53268 | 10039 ft | 190 kts | 256° |
| 2026-05-05 03:55 | -41.22905 | 173.51604 | 10040 ft | 190 kts | 256° |
| 2026-05-05 03:56 | -41.23331 | 173.49907 | 10041 ft | 190 kts | 256° |
| 2026-05-05 03:56 | -41.23737 | 173.48267 | 10042 ft | 190 kts | 256° |
| 2026-05-05 03:56 | -41.24152 | 173.46595 | 10044 ft | 190 kts | 256° |
| 2026-05-05 03:56 | -41.24427 | 173.45486 | 10046 ft | 190 kts | 256° |
| 2026-05-05 03:57 | -41.24987 | 173.43245 | 10051 ft | 190 kts | 256° |
| 2026-05-05 03:57 | -41.25397 | 173.41594 | 10067 ft | 190 kts | 256° |
| 2026-05-05 03:57 | -41.25678 | 173.40469 | 10071 ft | 190 kts | 256° |
| 2026-05-05 03:57 | -41.26231 | 173.38252 | 10072 ft | 191 kts | 256° |
| 2026-05-05 03:58 | -41.26649 | 173.36572 | 10072 ft | 191 kts | 256° |
| 2026-05-05 03:58 | -41.27067 | 173.34897 | 10072 ft | 191 kts | 256° |
| 2026-05-05 03:58 | -41.27348 | 173.33767 | 10073 ft | 191 kts | 256° |
| 2026-05-05 03:58 | -41.27903 | 173.31540 | 10073 ft | 191 kts | 256° |
| 2026-05-05 03:59 | -41.28182 | 173.30421 | 10072 ft | 191 kts | 256° |
| 2026-05-05 03:59 | -41.28602 | 173.28737 | 10072 ft | 191 kts | 256° |
| 2026-05-05 03:59 | -41.29024 | 173.27040 | 10072 ft | 191 kts | 256° |
| 2026-05-05 03:59 | -41.29442 | 173.25361 | 10072 ft | 191 kts | 256° |
| 2026-05-05 04:00 | -41.29861 | 173.23680 | 10072 ft | 191 kts | 256° |
| 2026-05-05 04:00 | -41.30274 | 173.22012 | 10072 ft | 191 kts | 256° |
| 2026-05-05 04:00 | -41.30713 | 173.20323 | 10072 ft | 192 kts | 255° |
| 2026-05-05 04:00 | -41.31164 | 173.18678 | 10026 ft | 194 kts | 254° |
| 2026-05-05 04:01 | -41.31637 | 173.16965 | 10006 ft | 194 kts | 254° |
| 2026-05-05 04:01 | -41.32101 | 173.15291 | 10002 ft | 193 kts | 254° |
| 2026-05-05 04:01 | -41.32558 | 173.13641 | 10001 ft | 193 kts | 254° |
| 2026-05-05 04:01 | -41.33027 | 173.11949 | 10001 ft | 192 kts | 254° |
| 2026-05-05 04:02 | -41.33490 | 173.10282 | 10001 ft | 192 kts | 254° |
| 2026-05-05 04:02 | -41.33949 | 173.08626 | 10001 ft | 192 kts | 254° |
| 2026-05-05 04:02 | -41.34413 | 173.06953 | 10000 ft | 192 kts | 254° |
| 2026-05-05 04:02 | -41.34876 | 173.05284 | 9999 ft | 192 kts | 254° |
| 2026-05-05 04:03 | -41.35343 | 173.03599 | 9999 ft | 192 kts | 254° |
| 2026-05-05 04:03 | -41.35804 | 173.01933 | 9999 ft | 192 kts | 254° |
| 2026-05-05 04:03 | -41.36262 | 173.00281 | 9999 ft | 192 kts | 254° |
| 2026-05-05 04:03 | -41.36723 | 172.98617 | 9999 ft | 192 kts | 254° |
| 2026-05-05 04:04 | -41.37192 | 172.96925 | 9998 ft | 192 kts | 254° |
| 2026-05-05 04:04 | -41.37641 | 172.95279 | 9996 ft | 192 kts | 254° |
| 2026-05-05 04:04 | -41.38104 | 172.93597 | 9994 ft | 192 kts | 254° |
| 2026-05-05 04:04 | -41.38552 | 172.91940 | 9993 ft | 192 kts | 254° |
| 2026-05-05 04:05 | -41.39011 | 172.90265 | 9992 ft | 192 kts | 254° |
| 2026-05-05 04:05 | -41.39462 | 172.88598 | 9991 ft | 192 kts | 255° |
| 2026-05-05 04:05 | -41.39922 | 172.86914 | 9990 ft | 192 kts | 254° |
| 2026-05-05 04:05 | -41.40378 | 172.85239 | 9996 ft | 191 kts | 255° |
| 2026-05-05 04:06 | -41.40830 | 172.83571 | 9999 ft | 191 kts | 254° |
| 2026-05-05 04:06 | -41.41285 | 172.81903 | 9999 ft | 191 kts | 255° |
| 2026-05-05 04:06 | -41.41731 | 172.80254 | 9999 ft | 192 kts | 254° |
| 2026-05-05 04:06 | -41.42187 | 172.78584 | 9998 ft | 191 kts | 255° |
| 2026-05-05 04:07 | -41.42645 | 172.76887 | 9997 ft | 192 kts | 254° |
| 2026-05-05 04:07 | -41.43102 | 172.75217 | 9997 ft | 192 kts | 255° |
| 2026-05-05 04:07 | -41.43545 | 172.73570 | 9996 ft | 192 kts | 254° |
| 2026-05-05 04:07 | -41.43996 | 172.71899 | 9995 ft | 191 kts | 255° |
| 2026-05-05 04:08 | -41.44450 | 172.70228 | 9994 ft | 191 kts | 254° |
| 2026-05-05 04:08 | -41.44895 | 172.68578 | 9994 ft | 191 kts | 255° |
| 2026-05-05 04:08 | -41.45355 | 172.66894 | 9994 ft | 191 kts | 254° |
| 2026-05-05 04:08 | -41.45801 | 172.65229 | 9994 ft | 191 kts | 255° |
| 2026-05-05 04:09 | -41.46256 | 172.63570 | 9994 ft | 191 kts | 254° |
| 2026-05-05 04:09 | -41.46704 | 172.61918 | 9995 ft | 191 kts | 255° |
| 2026-05-05 04:09 | -41.47165 | 172.60228 | 9993 ft | 191 kts | 254° |
| 2026-05-05 04:09 | -41.47616 | 172.58569 | 9993 ft | 191 kts | 255° |
| 2026-05-05 04:10 | -41.48057 | 172.56943 | 9993 ft | 191 kts | 254° |
| 2026-05-05 04:10 | -41.48515 | 172.55265 | 9993 ft | 190 kts | 255° |
| 2026-05-05 04:10 | -41.48968 | 172.53585 | 9987 ft | 191 kts | 254° |
| 2026-05-05 04:10 | -41.49422 | 172.51922 | 9986 ft | 191 kts | 254° |
| 2026-05-05 04:11 | -41.49865 | 172.50258 | 9985 ft | 191 kts | 255° |
| 2026-05-05 04:11 | -41.50307 | 172.48618 | 10002 ft | 187 kts | 254° |
| 2026-05-05 04:11 | -41.50410 | 172.48239 | 10004 ft | 186 kts | 254° |
| 2026-05-05 04:11 | -41.50735 | 172.47040 | 10007 ft | 183 kts | 254° |
| 2026-05-05 04:12 | -41.51164 | 172.45448 | 10008 ft | 180 kts | 254° |
| 2026-05-05 04:12 | -41.51586 | 172.43858 | 10012 ft | 178 kts | 254° |
| 2026-05-05 04:12 | -41.51990 | 172.42328 | 10014 ft | 177 kts | 253° |
| 2026-05-05 04:12 | -41.52401 | 172.40796 | 10014 ft | 175 kts | 253° |
| 2026-05-05 04:13 | -41.52806 | 172.39266 | 10016 ft | 174 kts | 253° |
| 2026-05-05 04:13 | -41.53206 | 172.37761 | 10017 ft | 173 kts | 252° |
| 2026-05-05 04:13 | -41.53614 | 172.36218 | 10017 ft | 173 kts | 252° |
| 2026-05-05 04:13 | -41.54022 | 172.34720 | 10017 ft | 172 kts | 251° |
| 2026-05-05 04:14 | -41.54421 | 172.33213 | 10018 ft | 172 kts | 252° |
| 2026-05-05 04:14 | -41.54827 | 172.31710 | 10018 ft | 172 kts | 251° |
| 2026-05-05 04:14 | -41.55225 | 172.30206 | 10017 ft | 172 kts | 252° |
| 2026-05-05 04:14 | -41.55631 | 172.28703 | 10018 ft | 172 kts | 251° |
| 2026-05-05 04:15 | -41.56032 | 172.27188 | 10016 ft | 172 kts | 252° |
| 2026-05-05 04:15 | -41.56430 | 172.25699 | 10013 ft | 172 kts | 251° |
| 2026-05-05 04:15 | -41.56833 | 172.24201 | 10003 ft | 172 kts | 250° |
| 2026-05-05 04:15 | -41.57234 | 172.22692 | 9999 ft | 171 kts | 250° |
| 2026-05-05 04:16 | -41.57588 | 172.21201 | 9996 ft | 171 kts | 257° |
| 2026-05-05 04:16 | -41.57705 | 172.19589 | 10002 ft | 172 kts | 265° |
| 2026-05-05 04:16 | -41.57727 | 172.18006 | 10001 ft | 172 kts | 266° |
| 2026-05-05 04:16 | -41.57745 | 172.16401 | 10000 ft | 172 kts | 266° |
| 2026-05-05 04:17 | -41.57774 | 172.14804 | 10001 ft | 173 kts | 265° |
| 2026-05-05 04:17 | -41.57812 | 172.13203 | 10001 ft | 173 kts | 265° |
| 2026-05-05 04:17 | -41.57855 | 172.11596 | 9999 ft | 173 kts | 265° |
| 2026-05-05 04:17 | -41.57913 | 172.10019 | 9999 ft | 172 kts | 264° |
| 2026-05-05 04:18 | -41.57966 | 172.08410 | 10001 ft | 172 kts | 265° |
| 2026-05-05 04:18 | -41.58021 | 172.06802 | 10000 ft | 172 kts | 265° |
| 2026-05-05 04:18 | -41.58081 | 172.05217 | 10001 ft | 171 kts | 265° |
| 2026-05-05 04:18 | -41.58143 | 172.03607 | 10000 ft | 171 kts | 266° |
| 2026-05-05 04:19 | -41.58194 | 172.02044 | 9990 ft | 172 kts | 267° |
| 2026-05-05 04:19 | -41.58245 | 172.00437 | 9742 ft | 167 kts | 267° |
| 2026-05-05 04:19 | -41.58291 | 171.98929 | 9532 ft | 159 kts | 267° |
| 2026-05-05 04:19 | -41.58347 | 171.97491 | 9329 ft | 153 kts | 266° |
| 2026-05-05 04:20 | -41.58395 | 171.96084 | 9127 ft | 150 kts | 267° |
| 2026-05-05 04:20 | -41.58448 | 171.94709 | 8925 ft | 148 kts | 266° |
| 2026-05-05 04:20 | -41.58494 | 171.93337 | 8723 ft | 147 kts | 266° |
| 2026-05-05 04:20 | -41.58544 | 171.91968 | 8523 ft | 146 kts | 266° |
| 2026-05-05 04:21 | -41.58590 | 171.90643 | 8325 ft | 145 kts | 265° |
| 2026-05-05 04:21 | -41.58635 | 171.89277 | 8120 ft | 145 kts | 265° |
| 2026-05-05 04:21 | -41.58727 | 171.87966 | 7912 ft | 143 kts | 251° |
| 2026-05-05 04:21 | -41.59184 | 171.86796 | 7723 ft | 141 kts | 235° |
| 2026-05-05 04:22 | -41.59726 | 171.85722 | 7525 ft | 142 kts | 231° |
| 2026-05-05 04:22 | -41.60309 | 171.84631 | 7322 ft | 143 kts | 237° |
| 2026-05-05 04:22 | -41.60910 | 171.83575 | 7124 ft | 144 kts | 237° |
| 2026-05-05 04:22 | -41.61523 | 171.82499 | 6923 ft | 145 kts | 237° |
| 2026-05-05 04:23 | -41.62127 | 171.81420 | 6741 ft | 144 kts | 238° |
| 2026-05-05 04:23 | -41.62716 | 171.80359 | 6556 ft | 145 kts | 239° |
| 2026-05-05 04:23 | -41.63310 | 171.79253 | 6307 ft | 150 kts | 241° |
| 2026-05-05 04:23 | -41.63885 | 171.78054 | 6057 ft | 152 kts | 244° |
| 2026-05-05 04:24 | -41.64444 | 171.76849 | 5810 ft | 154 kts | 243° |
| 2026-05-05 04:24 | -41.65005 | 171.75663 | 5599 ft | 143 kts | 243° |
| 2026-05-05 04:24 | -41.65541 | 171.74586 | 5343 ft | 136 kts | 240° |
| 2026-05-05 04:25 | -41.66492 | 171.72485 | 4909 ft | 116 kts | 239° |
| 2026-05-05 04:25 | -41.66810 | 171.71612 | 4681 ft | 98 kts | 238° |
| 2026-05-05 04:25 | -41.67122 | 171.70836 | 4421 ft | 93 kts | 237° |
| 2026-05-05 04:25 | -41.67451 | 171.70099 | 4166 ft | 91 kts | 236° |
| 2026-05-05 04:26 | -41.67797 | 171.69387 | 3911 ft | 90 kts | 234° |
| 2026-05-05 04:26 | -41.68149 | 171.68712 | 3662 ft | 90 kts | 234° |
| 2026-05-05 04:26 | -41.68516 | 171.68033 | 3405 ft | 92 kts | 238° |
| 2026-05-05 04:26 | -41.68917 | 171.67325 | 3152 ft | 97 kts | 236° |
| 2026-05-05 04:27 | -41.69317 | 171.66594 | 2905 ft | 97 kts | 236° |
| 2026-05-05 04:27 | -41.69707 | 171.65864 | 2658 ft | 96 kts | 237° |
| 2026-05-05 04:27 | -41.70083 | 171.65147 | 2413 ft | 94 kts | 238° |
| 2026-05-05 04:27 | -41.70457 | 171.64416 | 2157 ft | 94 kts | 238° |
| 2026-05-05 04:28 | -41.70819 | 171.63704 | 1910 ft | 96 kts | 234° |
| 2026-05-05 04:28 | -41.71208 | 171.62938 | 1657 ft | 98 kts | 237° |
| 2026-05-05 04:28 | -41.71586 | 171.62183 | 1410 ft | 97 kts | 238° |
| 2026-05-05 04:28 | -41.71954 | 171.61444 | 1166 ft | 95 kts | 239° |
| 2026-05-05 04:29 | -41.72316 | 171.60714 | 914 ft | 93 kts | 238° |
| 2026-05-05 04:29 | -41.72669 | 171.59991 | 659 ft | 94 kts | 238° |
| 2026-05-05 04:29 | -41.73034 | 171.59242 | 361 ft | 99 kts | 236° |
| 2026-05-05 04:29 | -41.73412 | 171.58518 | 62 ft | 89 kts | 234° |
| 2026-05-05 04:30 | -41.73671 | 171.57988 | 20 ft | 40 kts | 237° |
| 2026-05-05 04:30 | -41.73714 | 171.57900 | 20 ft | 0 kts | 237° |